createdAt,value
2023-03-12T11:07:05.964Z,2.50
2023-03-12T11:14:27.419Z,2.28
2023-03-12T11:16:17.747Z,3.67
2023-03-12T11:18:18.004Z,3.30
2023-03-12T11:36:09.059Z,2.28
2023-03-12T11:46:16.703Z,1.67
2023-03-12T11:56:23.512Z,1.63
2023-03-12T12:06:27.911Z,2.65
2023-03-12T12:16:39.417Z,1.73
2023-03-12T12:26:56.545Z,1.73
2023-03-12T12:37:17.520Z,1.33
2023-03-12T12:55:37.552Z,1.58
2023-03-12T13:05:45.958Z,1.15
2023-03-12T13:15:48.126Z,1.52
2023-03-12T13:26:04.820Z,1.10
2023-03-12T13:36:28.399Z,2.17
2023-03-12T13:46:35.407Z,3.03
2023-03-12T13:56:37.020Z,2.85
2023-03-12T14:06:51.787Z,2.05
2023-03-12T14:16:57.836Z,3.03
2023-03-12T14:27:00.832Z,2.75
2023-03-12T14:37:24.604Z,5.00
2023-03-12T14:47:26.231Z,4.75
2023-03-12T14:57:27.896Z,3.63
2023-03-12T15:07:35.441Z,4.25
2023-03-12T15:17:37.127Z,4.20
2023-03-12T15:27:38.793Z,6.88
2023-03-12T15:37:41.049Z,5.20
2023-03-12T15:47:42.649Z,7.30
2023-03-12T15:57:52.344Z,5.40
2023-03-12T16:07:53.967Z,4.75
2023-03-12T16:17:55.860Z,2.90
2023-03-12T16:27:59.013Z,3.17
2023-03-12T16:38:02.373Z,3.15
2023-03-12T16:48:06.436Z,3.22
2023-03-12T16:58:12.199Z,2.22
2023-03-12T17:08:14.960Z,4.10
2023-03-12T17:18:17.407Z,2.92
2023-03-12T17:28:19.056Z,3.60
2023-03-12T17:38:20.783Z,3.35
2023-03-12T17:48:23.403Z,5.18
2023-03-12T17:58:25.041Z,5.45
2023-03-12T18:08:27.640Z,4.55
2023-03-12T18:18:29.190Z,4.20
2023-03-12T18:28:30.945Z,4.05
2023-03-12T18:38:32.801Z,2.63
2023-03-12T18:48:35.082Z,3.90
2023-03-12T18:58:36.750Z,3.83
2023-03-12T19:08:38.713Z,4.22
2023-03-12T19:18:40.275Z,2.88
2023-03-12T19:28:43.274Z,6.35
2023-03-12T19:38:45.195Z,6.07
2023-03-12T19:48:46.819Z,6.18
2023-03-12T19:58:48.547Z,4.90
2023-03-12T20:08:50.131Z,4.78
2023-03-12T20:18:51.724Z,5.55
2023-03-12T20:28:53.377Z,5.03
2023-03-12T20:38:54.953Z,7.00
2023-03-12T20:48:57.050Z,4.70
2023-03-12T20:58:59.436Z,4.30
2023-03-12T21:09:01.185Z,2.75
2023-03-12T21:19:02.800Z,4.28
2023-03-12T21:29:04.465Z,3.65
2023-03-12T21:39:06.073Z,3.25
2023-03-12T21:49:07.744Z,3.42
2023-03-12T21:59:10.514Z,4.38
2023-03-12T22:09:12.177Z,2.83
2023-03-12T22:19:13.732Z,3.42
2023-03-12T22:29:15.307Z,2.75
2023-03-12T22:39:17.425Z,3.88
2023-03-12T22:49:19.023Z,2.70
2023-03-12T22:59:20.597Z,3.90
2023-03-12T23:09:22.156Z,3.03
2023-03-12T23:19:23.744Z,3.20
2023-03-12T23:29:25.289Z,3.15
2023-03-12T23:39:26.875Z,3.47
2023-03-12T23:49:28.447Z,2.78
2023-03-12T23:59:30.012Z,4.50
